createdAt,value
2018-09-25T00:00:49.355Z,8.80
2018-09-25T00:01:49.344Z,9.89
2018-09-25T00:02:49.332Z,9.19
2018-09-25T00:03:49.321Z,9.60
2018-09-25T00:04:49.312Z,6.40
2018-09-25T00:05:49.298Z,6.69
2018-09-25T00:06:49.291Z,14.69
2018-09-25T00:07:49.282Z,8.69
2018-09-25T00:08:49.273Z,24.20
2018-09-25T00:09:49.258Z,45.20
2018-09-25T00:10:49.245Z,15.50
2018-09-25T00:11:49.236Z,12.30
2018-09-25T00:12:49.236Z,13.39
2018-09-25T00:13:49.212Z,23.20
2018-09-25T00:14:49.201Z,9.30
2018-09-25T00:15:49.190Z,9.80
2018-09-25T00:16:49.182Z,8.19
2018-09-25T00:17:49.170Z,7.50
2018-09-25T00:18:49.159Z,7.40
2018-09-25T00:19:49.152Z,7.30
2018-09-25T00:20:49.141Z,6.50
2018-09-25T00:21:49.130Z,7.30
2018-09-25T00:22:49.117Z,5.40
2018-09-25T00:23:49.107Z,10.10
2018-09-25T00:24:49.095Z,11.80
2018-09-25T00:25:49.084Z,33.59
2018-09-25T00:26:49.073Z,208.89
2018-09-25T00:27:49.061Z,102.90
2018-09-25T00:28:49.052Z,31.10
2018-09-25T00:29:49.040Z,184.60
2018-09-25T00:30:49.027Z,29.10
2018-09-25T00:31:49.016Z,11.30
2018-09-25T00:32:49.007Z,7.30
2018-09-25T00:33:48.994Z,92.19
2018-09-25T00:34:48.997Z,27.50
2018-09-25T00:35:48.973Z,11.50
2018-09-25T00:36:48.961Z,69.40
2018-09-25T00:37:48.951Z,21.60
2018-09-25T00:38:48.941Z,40.00
2018-09-25T00:39:48.930Z,104.50
2018-09-25T00:40:48.920Z,37.00
2018-09-25T00:41:48.907Z,53.29
2018-09-25T00:42:48.898Z,36.00
2018-09-25T00:43:48.886Z,99.50
2018-09-25T00:44:48.876Z,37.70
2018-09-25T00:45:48.864Z,13.60
2018-09-25T00:46:48.854Z,38.50
2018-09-25T00:47:48.850Z,17.29
2018-09-25T00:48:48.834Z,46.09
2018-09-25T00:49:48.821Z,73.59
2018-09-25T00:50:48.810Z,45.20
2018-09-25T00:51:48.798Z,237.80
2018-09-25T00:52:48.791Z,83.30
2018-09-25T00:53:48.780Z,160.50
2018-09-25T00:54:48.773Z,102.59
2018-09-25T00:55:48.756Z,175.69
2018-09-25T00:56:48.744Z,96.09
2018-09-25T00:57:48.736Z,49.20
2018-09-25T00:58:48.731Z,32.40
2018-09-25T00:59:48.713Z,30.29
2018-09-25T01:00:48.708Z,59.70
2018-09-25T01:01:48.694Z,17.89
2018-09-25T01:02:48.681Z,33.00
2018-09-25T01:03:48.669Z,30.20
2018-09-25T01:04:48.664Z,86.30
2018-09-25T01:05:48.649Z,49.59
2018-09-25T01:06:48.634Z,109.90
2018-09-25T01:07:48.623Z,130.89
2018-09-25T01:08:48.614Z,18.89
2018-09-25T01:09:48.605Z,140.69
2018-09-25T01:10:48.595Z,38.09
2018-09-25T01:11:48.582Z,82.80
2018-09-25T01:12:48.570Z,110.50
2018-09-25T01:13:48.561Z,39.40
2018-09-25T01:14:48.548Z,158.50
2018-09-25T01:15:48.540Z,111.40
2018-09-25T01:16:48.526Z,123.50
2018-09-25T01:17:48.517Z,157.60
2018-09-25T01:18:48.505Z,199.69
2018-09-25T01:19:48.500Z,54.70
2018-09-25T01:20:48.485Z,181.80
2018-09-25T01:21:48.474Z,58.50
2018-09-25T01:22:48.464Z,76.50
2018-09-25T01:23:48.452Z,90.19
2018-09-25T01:24:48.443Z,144.19
2018-09-25T01:25:48.429Z,167.30
2018-09-25T01:26:48.417Z,42.29
2018-09-25T01:27:48.411Z,67.30
2018-09-25T01:28:48.396Z,121.00
2018-09-25T01:29:48.384Z,88.09
2018-09-25T01:30:48.376Z,121.09
2018-09-25T01:31:48.366Z,40.50
2018-09-25T01:32:48.353Z,75.19
2018-09-25T01:33:48.344Z,26.29
2018-09-25T01:34:48.333Z,160.69
2018-09-25T01:35:48.324Z,45.70
2018-09-25T01:36:48.311Z,118.00
2018-09-25T01:37:48.298Z,73.69
2018-09-25T01:38:48.287Z,59.00
2018-09-25T01:39:48.277Z,50.59
2018-09-25T01:40:48.264Z,75.90
2018-09-25T01:41:48.258Z,68.50
2018-09-25T01:42:48.244Z,78.19
2018-09-25T01:43:48.234Z,289.00
2018-09-25T01:44:48.224Z,130.00
2018-09-25T01:45:48.216Z,62.29
2018-09-25T01:46:48.202Z,35.20
2018-09-25T01:47:48.192Z,196.60
2018-09-25T01:48:48.182Z,57.00
2018-09-25T01:49:48.167Z,92.09
2018-09-25T01:50:48.161Z,130.00
2018-09-25T01:51:48.146Z,248.60
2018-09-25T01:52:48.138Z,96.09
2018-09-25T01:53:48.127Z,82.59
2018-09-25T01:54:48.113Z,100.09
2018-09-25T01:55:48.104Z,135.30
2018-09-25T01:56:48.092Z,115.09
2018-09-25T01:57:48.081Z,20.29
2018-09-25T01:58:48.069Z,118.30
2018-09-25T01:59:48.061Z,327.89
2018-09-25T02:00:48.053Z,67.80
2018-09-25T02:01:48.039Z,46.90
2018-09-25T02:02:48.024Z,440.70
2018-09-25T02:03:48.019Z,266.89
2018-09-25T02:04:48.005Z,169.39
2018-09-25T02:05:48.051Z,119.40
2018-09-25T02:06:47.984Z,197.60
2018-09-25T02:07:47.976Z,99.90
2018-09-25T02:08:47.962Z,154.60
2018-09-25T02:09:47.950Z,56.79
2018-09-25T02:10:47.942Z,30.29
2018-09-25T02:11:47.930Z,31.29
2018-09-25T02:12:47.917Z,64.09
2018-09-25T02:13:47.911Z,165.39
2018-09-25T02:14:47.899Z,18.10
2018-09-25T02:15:47.891Z,36.20
2018-09-25T02:16:47.872Z,255.89
2018-09-25T02:17:47.861Z,26.39
2018-09-25T02:18:47.851Z,239.80
2018-09-25T02:19:47.842Z,85.00
2018-09-25T02:20:47.831Z,46.29
2018-09-25T02:21:47.819Z,72.40
2018-09-25T02:22:47.811Z,53.79
2018-09-25T02:23:47.800Z,43.79
2018-09-25T02:24:47.786Z,31.79
2018-09-25T02:25:47.778Z,61.70
2018-09-25T02:26:47.764Z,190.50
2018-09-25T02:27:47.756Z,118.19
2018-09-25T02:28:47.744Z,32.59
2018-09-25T02:29:47.736Z,31.50
2018-09-25T02:30:47.728Z,24.39
2018-09-25T02:31:47.712Z,42.20
2018-09-25T02:32:47.700Z,15.50
2018-09-25T02:33:47.689Z,43.59
2018-09-25T02:34:47.677Z,36.79
2018-09-25T02:35:47.667Z,156.19
2018-09-25T02:36:47.656Z,151.30
2018-09-25T02:37:47.644Z,230.30
2018-09-25T02:38:47.636Z,45.59
2018-09-25T02:39:47.623Z,27.50
2018-09-25T02:40:47.614Z,44.00
2018-09-25T02:41:47.605Z,67.30
2018-09-25T02:42:47.594Z,82.30
2018-09-25T02:43:47.581Z,72.50
2018-09-25T02:44:47.570Z,168.19
2018-09-25T02:45:47.557Z,293.70
2018-09-25T02:46:47.548Z,266.39
2018-09-25T02:47:47.538Z,228.60
2018-09-25T02:48:47.528Z,69.80
2018-09-25T02:49:47.515Z,64.40
2018-09-25T02:50:47.503Z,121.59
2018-09-25T02:51:47.492Z,63.29
2018-09-25T02:52:47.483Z,37.70
2018-09-25T02:53:47.473Z,150.00
2018-09-25T02:54:47.461Z,56.70
2018-09-25T02:55:47.452Z,248.19
2018-09-25T02:56:47.438Z,141.10
2018-09-25T02:57:47.430Z,116.90
2018-09-25T02:58:47.416Z,122.59
2018-09-25T02:59:47.405Z,215.69
2018-09-25T03:00:47.397Z,330.79
2018-09-25T03:01:47.386Z,401.29
2018-09-25T03:02:47.374Z,329.29
2018-09-25T03:03:47.366Z,267.10
2018-09-25T03:04:47.355Z,155.30
2018-09-25T03:05:47.345Z,146.00
2018-09-25T03:06:47.333Z,80.59
2018-09-25T03:07:47.322Z,233.00
2018-09-25T03:08:47.324Z,136.39
2018-09-25T03:09:47.300Z,59.70
2018-09-25T03:10:47.286Z,74.69
2018-09-25T03:11:47.274Z,35.20
2018-09-25T03:12:47.265Z,63.00
2018-09-25T03:13:47.253Z,78.30
2018-09-25T03:14:47.245Z,19.00
2018-09-25T03:15:47.233Z,91.09
2018-09-25T03:16:47.221Z,99.19
2018-09-25T03:17:47.211Z,50.59
2018-09-25T03:18:47.199Z,111.59
2018-09-25T03:19:47.188Z,33.90
2018-09-25T03:20:47.175Z,38.79
2018-09-25T03:21:47.166Z,41.09
2018-09-25T03:22:47.157Z,147.10
2018-09-25T03:23:47.307Z,57.09
2018-09-25T03:24:47.136Z,72.40
2018-09-25T03:25:47.124Z,43.90
2018-09-25T03:26:47.118Z,104.59
2018-09-25T03:27:47.102Z,34.79
2018-09-25T03:28:47.090Z,20.29
2018-09-25T03:29:47.083Z,11.39
2018-09-25T03:30:47.070Z,13.19
2018-09-25T03:31:47.071Z,4.90
2018-09-25T03:32:47.049Z,10.00
2018-09-25T03:33:47.036Z,12.00
2018-09-25T03:34:47.027Z,77.40
2018-09-25T03:35:47.016Z,266.70
2018-09-25T03:36:47.007Z,245.69
2018-09-25T03:37:46.991Z,85.19
2018-09-25T03:38:46.982Z,216.80
2018-09-25T03:39:46.973Z,141.60
2018-09-25T03:40:46.964Z,116.50
2018-09-25T03:41:47.006Z,112.59
2018-09-25T03:42:46.939Z,97.80
2018-09-25T03:43:46.927Z,139.80
2018-09-25T03:44:46.919Z,111.80
2018-09-25T03:45:46.906Z,119.00
2018-09-25T03:46:46.902Z,132.89
2018-09-25T03:47:46.886Z,231.69
2018-09-25T03:48:46.873Z,97.09
2018-09-25T03:49:46.863Z,50.90
2018-09-25T03:50:46.851Z,75.69
2018-09-25T03:51:46.848Z,60.20
2018-09-25T03:52:46.831Z,102.80
2018-09-25T03:53:46.818Z,64.40
2018-09-25T03:54:46.810Z,96.30
2018-09-25T03:55:46.797Z,70.19
2018-09-25T03:56:46.788Z,38.59
2018-09-25T03:57:46.783Z,34.00
2018-09-25T03:58:46.763Z,82.69
2018-09-25T03:59:46.754Z,16.39
2018-09-25T04:00:46.745Z,29.20
2018-09-25T04:01:46.729Z,14.00
2018-09-25T04:02:46.718Z,18.89
2018-09-25T04:03:46.710Z,186.39
2018-09-25T04:04:46.698Z,120.40
2018-09-25T04:05:46.688Z,167.89
2018-09-25T04:06:46.677Z,116.50
2018-09-25T04:07:46.664Z,184.60
2018-09-25T04:08:46.653Z,103.80
2018-09-25T04:09:46.643Z,100.80
2018-09-25T04:10:46.633Z,140.89
2018-09-25T04:11:46.627Z,299.10
2018-09-25T04:12:46.615Z,105.09
2018-09-25T04:13:46.602Z,102.69
2018-09-25T04:14:46.591Z,158.19
2018-09-25T04:15:46.579Z,107.90
2018-09-25T04:16:46.570Z,168.89
2018-09-25T04:17:46.563Z,107.69
2018-09-25T04:18:46.548Z,71.40
2018-09-25T04:19:46.534Z,155.89
2018-09-25T04:20:46.525Z,84.69
2018-09-25T04:21:46.513Z,105.69
2018-09-25T04:22:46.509Z,107.40
2018-09-25T04:23:46.493Z,137.50
2018-09-25T04:24:46.481Z,114.69
2018-09-25T04:25:46.471Z,150.30
2018-09-25T04:26:46.461Z,139.69
2018-09-25T04:27:46.450Z,94.69
2018-09-25T04:28:46.446Z,167.69
2018-09-25T04:29:46.428Z,206.19
2018-09-25T04:30:46.420Z,86.30
2018-09-25T04:31:46.405Z,132.00
2018-09-25T04:32:46.393Z,130.39
2018-09-25T04:33:46.389Z,164.19
2018-09-25T04:34:46.372Z,135.89
2018-09-25T04:35:46.361Z,47.50
2018-09-25T04:36:46.353Z,135.80
2018-09-25T04:37:46.340Z,52.09
2018-09-25T04:38:46.329Z,119.69
2018-09-25T04:39:46.320Z,49.00
2018-09-25T04:40:46.308Z,60.29
2018-09-25T04:41:46.299Z,99.00
2018-09-25T04:42:46.284Z,64.59
2018-09-25T04:43:46.277Z,82.09
2018-09-25T04:44:46.266Z,65.90
2018-09-25T04:45:46.255Z,49.29
2018-09-25T04:46:46.245Z,32.79
2018-09-25T04:47:46.281Z,36.70
2018-09-25T04:48:46.220Z,39.40
2018-09-25T04:49:46.209Z,33.00
2018-09-25T04:50:46.198Z,25.20
2018-09-25T04:51:46.193Z,82.90
2018-09-25T04:52:46.178Z,55.90
2018-09-25T04:53:46.165Z,96.40
2018-09-25T04:54:46.155Z,67.69
2018-09-25T04:55:46.149Z,60.50
2018-09-25T04:56:46.135Z,50.79
2018-09-25T04:57:46.124Z,18.60
2018-09-25T04:58:46.116Z,34.79
2018-09-25T04:59:46.101Z,60.59
2018-09-25T05:00:46.090Z,32.79
2018-09-25T05:01:46.078Z,46.20
2018-09-25T05:02:46.068Z,37.09
2018-09-25T05:03:46.058Z,155.30
2018-09-25T05:04:46.046Z,95.00
2018-09-25T05:05:46.034Z,104.80
2018-09-25T05:06:46.154Z,52.20
2018-09-25T05:07:46.021Z,125.19
2018-09-25T05:08:46.003Z,52.50
2018-09-25T05:09:45.998Z,31.70
2018-09-25T05:10:45.981Z,57.29
2018-09-25T05:11:45.972Z,22.20
2018-09-25T05:12:45.960Z,66.90
2018-09-25T05:13:45.950Z,46.70
2018-09-25T05:14:45.975Z,60.29
2018-09-25T05:15:45.930Z,38.50
2018-09-25T05:16:45.918Z,68.40
2018-09-25T05:17:45.905Z,41.79
2018-09-25T05:18:45.895Z,159.19
2018-09-25T05:19:45.884Z,23.20
2018-09-25T05:20:45.874Z,11.50
2018-09-25T05:21:45.862Z,7.69
2018-09-25T05:22:45.854Z,6.30
2018-09-25T05:23:45.840Z,9.89
2018-09-25T05:24:45.833Z,6.50
2018-09-25T05:25:45.822Z,7.80
2018-09-25T05:26:45.809Z,7.09
2018-09-25T05:27:45.795Z,9.69
2018-09-25T05:28:45.787Z,8.19
2018-09-25T05:29:45.774Z,7.80
2018-09-25T05:30:45.763Z,9.19
2018-09-25T05:31:45.755Z,9.69
2018-09-25T05:32:45.745Z,7.59
2018-09-25T05:33:45.732Z,10.39
2018-09-25T05:34:45.720Z,7.09
2018-09-25T05:35:45.708Z,9.69
2018-09-25T05:36:45.702Z,8.89
2018-09-25T05:37:45.687Z,6.69
2018-09-25T05:38:45.674Z,12.30
2018-09-25T05:39:45.669Z,7.90
2018-09-25T05:40:45.677Z,7.50
2018-09-25T05:41:45.643Z,8.30
2018-09-25T05:42:45.633Z,8.19
2018-09-25T05:43:45.621Z,8.10
2018-09-25T05:44:45.613Z,6.40
2018-09-25T05:45:45.603Z,7.59
2018-09-25T05:46:45.588Z,6.59
2018-09-25T05:47:45.577Z,6.40
2018-09-25T05:48:45.597Z,5.30
2018-09-25T05:49:45.553Z,11.60
2018-09-25T05:50:45.620Z,9.19
2018-09-25T05:51:45.538Z,6.00
2018-09-25T05:52:45.522Z,6.80
2018-09-25T05:53:45.513Z,7.00
2018-09-25T05:54:45.500Z,6.09
2018-09-25T05:55:45.491Z,6.59
2018-09-25T05:56:45.479Z,5.59
2018-09-25T05:57:45.468Z,6.09
2018-09-25T05:58:45.463Z,5.90
2018-09-25T05:59:45.448Z,5.19
2018-09-25T06:00:45.435Z,7.19
2018-09-25T06:01:45.426Z,10.10
2018-09-25T06:02:45.413Z,5.80
2018-09-25T06:03:45.401Z,5.19
2018-09-25T06:04:45.393Z,6.30
2018-09-25T06:05:45.384Z,5.19
2018-09-25T06:06:45.373Z,5.59
2018-09-25T06:07:45.360Z,5.00
2018-09-25T06:08:45.348Z,4.90
2018-09-25T06:09:45.456Z,5.00
2018-09-25T06:10:45.330Z,4.69
2018-09-25T06:11:45.317Z,4.19
2018-09-25T06:12:45.304Z,4.19
2018-09-25T06:13:45.299Z,4.50
2018-09-25T06:14:45.283Z,4.00
2018-09-25T06:15:45.323Z,4.30
2018-09-25T06:16:45.260Z,4.50
2018-09-25T06:17:45.249Z,3.79
2018-09-25T06:18:45.296Z,4.00
2018-09-25T06:19:45.228Z,4.69
2018-09-25T06:20:45.218Z,4.30
2018-09-25T06:21:45.207Z,3.40
2018-09-25T06:22:45.197Z,3.20
2018-09-25T06:23:45.185Z,3.59
2018-09-25T06:24:45.173Z,3.29
2018-09-25T06:25:45.165Z,3.29
2018-09-25T06:26:45.181Z,3.79
2018-09-25T06:27:45.145Z,4.09
2018-09-25T06:28:45.185Z,3.40
2018-09-25T06:29:45.118Z,4.90
2018-09-25T06:30:45.112Z,4.00
2018-09-25T06:31:45.100Z,4.30
2018-09-25T06:32:45.092Z,4.19
2018-09-25T06:33:45.074Z,4.59
2018-09-25T06:34:45.081Z,4.50
2018-09-25T06:35:45.055Z,5.09
2018-09-25T06:36:45.041Z,5.50
2018-09-25T06:37:45.032Z,4.90
2018-09-25T06:38:45.069Z,5.59
2018-09-25T06:39:45.013Z,7.50
2018-09-25T06:40:45.021Z,7.90
2018-09-25T06:41:44.989Z,6.40
2018-09-25T06:42:44.978Z,6.80
2018-09-25T06:43:44.968Z,6.80
2018-09-25T06:44:44.956Z,6.40
2018-09-25T06:45:44.946Z,7.40
2018-09-25T06:46:44.933Z,4.90
2018-09-25T06:47:44.924Z,7.69
2018-09-25T06:48:44.915Z,6.30
2018-09-25T06:49:44.901Z,6.90
2018-09-25T06:50:44.893Z,6.00
2018-09-25T06:51:44.881Z,8.69
2018-09-25T06:52:44.868Z,6.50
2018-09-25T06:53:44.857Z,6.09
2018-09-25T06:54:44.950Z,7.30
2018-09-25T06:55:44.837Z,8.10
2018-09-25T06:56:44.827Z,6.50
2018-09-25T06:57:44.812Z,9.60
2018-09-25T06:58:44.801Z,6.59
2018-09-25T06:59:44.794Z,6.80
2018-09-25T07:00:44.851Z,8.89
2018-09-25T07:01:44.771Z,9.10
2018-09-25T07:02:44.757Z,6.90
2018-09-25T07:03:44.750Z,7.80
2018-09-25T07:04:44.737Z,7.00
2018-09-25T07:05:44.725Z,8.80
2018-09-25T07:06:44.721Z,10.50
2018-09-25T07:07:44.704Z,12.69
2018-09-25T07:08:44.691Z,7.90
2018-09-25T07:09:44.751Z,10.19
2018-09-25T07:10:44.798Z,24.29
2018-09-25T07:11:44.658Z,14.30
2018-09-25T07:12:44.653Z,10.50
2018-09-25T07:13:44.638Z,15.19
2018-09-25T07:14:44.626Z,34.00
2018-09-25T07:15:44.632Z,8.50
2018-09-25T07:16:44.605Z,12.39
2018-09-25T07:17:44.658Z,36.90
2018-09-25T07:18:44.584Z,18.60
2018-09-25T07:19:44.572Z,14.60
2018-09-25T07:20:44.563Z,25.70
2018-09-25T07:21:44.550Z,17.39
2018-09-25T07:22:44.582Z,17.60
2018-09-25T07:23:44.535Z,22.79
2018-09-25T07:24:44.616Z,22.79
2018-09-25T07:25:44.509Z,15.39
2018-09-25T07:26:44.495Z,14.69
2018-09-25T07:27:44.484Z,21.89
2018-09-25T07:28:44.475Z,15.19
2018-09-25T07:29:44.462Z,8.50
2018-09-25T07:30:44.452Z,8.19
2018-09-25T07:31:44.442Z,25.79
2018-09-25T07:32:44.431Z,21.60
2018-09-25T07:33:44.421Z,8.60
2018-09-25T07:34:44.410Z,34.50
2018-09-25T07:35:44.437Z,12.80
2018-09-25T07:36:44.386Z,8.50
2018-09-25T07:37:44.380Z,9.10
2018-09-25T07:38:44.364Z,7.90
2018-09-25T07:39:44.425Z,11.80
2018-09-25T07:40:44.343Z,63.59
2018-09-25T07:41:44.333Z,13.10
2018-09-25T07:42:44.322Z,9.89
2018-09-25T07:43:44.313Z,9.39
2018-09-25T07:44:44.299Z,24.29
2018-09-25T07:45:44.287Z,17.00
2018-09-25T07:46:44.276Z,32.09
2018-09-25T07:47:44.268Z,8.89
2018-09-25T07:48:44.262Z,16.79
2018-09-25T07:49:44.244Z,10.10
2018-09-25T07:50:44.235Z,10.00
2018-09-25T07:51:44.224Z,9.89
2018-09-25T07:52:44.211Z,13.50
2018-09-25T07:53:44.200Z,16.89
2018-09-25T07:54:44.193Z,9.60
2018-09-25T07:55:44.304Z,8.39
2018-09-25T07:56:44.170Z,14.50
2018-09-25T07:57:44.158Z,9.89
2018-09-25T07:58:44.148Z,13.30
2018-09-25T07:59:44.133Z,11.19
2018-09-25T08:00:44.125Z,9.00
2018-09-25T08:01:44.112Z,25.39
2018-09-25T08:02:44.101Z,10.89
2018-09-25T08:03:44.095Z,18.00
2018-09-25T08:04:44.083Z,10.60
2018-09-25T08:05:44.071Z,27.10
2018-09-25T08:06:44.062Z,16.20
2018-09-25T08:07:44.049Z,11.39
2018-09-25T08:08:44.037Z,10.30
2018-09-25T08:09:44.033Z,15.80
2018-09-25T08:10:44.015Z,12.30
2018-09-25T08:11:44.004Z,8.80
2018-09-25T08:12:43.994Z,10.19
2018-09-25T08:13:43.983Z,9.60
2018-09-25T08:14:43.971Z,8.69
2018-09-25T08:15:43.959Z,15.89
2018-09-25T08:16:43.951Z,9.39
2018-09-25T08:17:43.941Z,9.00
2018-09-25T08:18:43.929Z,14.69
2018-09-25T08:19:43.918Z,8.89
2018-09-25T08:20:43.907Z,9.89
2018-09-25T08:21:43.897Z,13.00
2018-09-25T08:22:43.887Z,15.00
2018-09-25T08:23:43.874Z,11.30
2018-09-25T08:24:43.871Z,9.50
2018-09-25T08:25:43.852Z,9.50
2018-09-25T08:26:43.881Z,20.70
2018-09-25T08:27:43.829Z,9.10
2018-09-25T08:28:43.819Z,18.89
2018-09-25T08:29:43.865Z,10.10
2018-09-25T08:30:43.800Z,9.19
2018-09-25T08:31:43.787Z,19.60
2018-09-25T08:32:43.776Z,20.60
2018-09-25T08:33:43.766Z,12.30
2018-09-25T08:34:43.752Z,9.19
2018-09-25T08:35:43.741Z,11.19
2018-09-25T08:36:43.732Z,9.69
2018-09-25T08:37:43.722Z,16.60
2018-09-25T08:38:43.768Z,9.50
2018-09-25T08:39:43.698Z,9.89
2018-09-25T08:40:43.688Z,9.10
2018-09-25T08:41:43.698Z,9.00
2018-09-25T08:42:43.665Z,11.30
2018-09-25T08:43:43.659Z,20.10
2018-09-25T08:44:43.662Z,10.10
2018-09-25T08:45:43.661Z,9.30
2018-09-25T08:46:43.621Z,9.80
2018-09-25T08:47:43.631Z,13.30
2018-09-25T08:48:43.599Z,9.69
2018-09-25T08:49:43.601Z,9.30
2018-09-25T08:50:43.579Z,13.50
2018-09-25T08:51:43.568Z,10.00
2018-09-25T08:52:43.558Z,9.69
2018-09-25T08:53:43.546Z,9.80
2018-09-25T08:54:43.535Z,10.19
2018-09-25T08:55:43.530Z,11.19
2018-09-25T08:56:43.514Z,10.19
2018-09-25T08:57:43.508Z,9.80
2018-09-25T08:58:43.490Z,11.60
2018-09-25T08:59:43.479Z,11.39
2018-09-25T09:00:43.468Z,9.60
2018-09-25T09:01:43.457Z,10.10
2018-09-25T09:02:43.448Z,9.89
2018-09-25T09:03:43.435Z,9.80
2018-09-25T09:04:43.426Z,10.19
2018-09-25T09:05:43.414Z,10.39
2018-09-25T09:06:43.403Z,10.80
2018-09-25T09:07:43.396Z,9.89
2018-09-25T09:08:43.379Z,10.89
2018-09-25T09:09:43.371Z,9.89
2018-09-25T09:10:43.363Z,10.39
2018-09-25T09:11:43.350Z,10.39
2018-09-25T09:12:43.337Z,10.30
2018-09-25T09:13:43.328Z,12.39
2018-09-25T09:14:43.316Z,10.80
2018-09-25T09:15:43.307Z,10.80
2018-09-25T09:16:43.294Z,11.10
2018-09-25T09:17:43.281Z,10.30
2018-09-25T09:18:43.290Z,12.00
2018-09-25T09:19:43.285Z,10.89
2018-09-25T09:20:43.252Z,12.80
2018-09-25T09:21:43.237Z,10.69
2018-09-25T09:22:43.226Z,11.50
2018-09-25T09:23:43.216Z,11.69
2018-09-25T09:24:43.206Z,10.80
2018-09-25T09:25:43.197Z,10.50
2018-09-25T09:26:43.185Z,10.39
2018-09-25T09:27:43.173Z,11.50
2018-09-25T09:28:43.166Z,12.00
2018-09-25T09:29:43.152Z,10.80
2018-09-25T09:30:43.139Z,11.19
2018-09-25T09:31:43.131Z,11.50
2018-09-25T09:32:43.178Z,11.30
2018-09-25T09:33:43.109Z,12.10
2018-09-25T09:34:43.096Z,12.69
2018-09-25T09:35:43.092Z,14.89
2018-09-25T09:36:43.075Z,11.19
2018-09-25T09:37:43.063Z,11.50
2018-09-25T09:38:43.053Z,11.80
2018-09-25T09:39:43.039Z,12.39
2018-09-25T09:40:43.033Z,11.69
2018-09-25T09:41:43.316Z,11.89
2018-09-25T09:42:43.012Z,13.89
2018-09-25T09:43:42.996Z,14.60
2018-09-25T09:44:42.988Z,15.30
2018-09-25T09:45:42.977Z,17.10
2018-09-25T09:46:42.963Z,15.39
2018-09-25T09:47:42.959Z,15.50
2018-09-25T09:48:42.966Z,16.79
2018-09-25T09:49:42.932Z,15.80
2018-09-25T09:50:42.921Z,14.10
2018-09-25T09:51:42.911Z,13.19
2018-09-25T09:52:42.899Z,13.39
2018-09-25T09:53:42.888Z,14.39
2018-09-25T09:54:42.876Z,12.39
2018-09-25T09:55:42.867Z,14.10
2018-09-25T09:56:42.857Z,15.19
2018-09-25T09:57:42.844Z,16.50
2018-09-25T09:58:42.833Z,14.69
2018-09-25T09:59:42.821Z,14.50
2018-09-25T10:00:42.811Z,16.20
2018-09-25T10:01:42.799Z,16.50
2018-09-25T10:02:42.791Z,16.39
2018-09-25T10:03:42.779Z,16.50
2018-09-25T10:04:42.768Z,17.60
2018-09-25T10:05:42.757Z,10.80
2018-09-25T10:06:42.849Z,11.80
2018-09-25T10:07:42.734Z,12.60
2018-09-25T10:08:42.727Z,9.00
2018-09-25T10:09:42.712Z,12.19
2018-09-25T10:10:42.705Z,14.39
2018-09-25T10:11:42.692Z,11.10
2018-09-25T10:12:42.678Z,11.80
2018-09-25T10:13:42.669Z,8.60
2018-09-25T10:14:42.657Z,8.30
2018-09-25T10:15:42.648Z,7.30
2018-09-25T10:16:42.636Z,8.30
2018-09-25T10:17:42.625Z,8.50
2018-09-25T10:18:42.650Z,8.19
2018-09-25T10:19:42.602Z,8.80
2018-09-25T10:20:42.590Z,8.60
2018-09-25T10:21:42.581Z,10.10
2018-09-25T10:22:42.569Z,7.00
2018-09-25T10:23:42.560Z,9.00
2018-09-25T10:24:42.548Z,6.90
2018-09-25T10:25:42.535Z,7.30
2018-09-25T10:26:42.524Z,6.50
2018-09-25T10:27:42.516Z,7.40
2018-09-25T10:28:42.504Z,7.90
2018-09-25T10:29:42.497Z,8.60
2018-09-25T10:30:42.484Z,8.10
2018-09-25T10:31:42.472Z,6.59
2018-09-25T10:32:42.460Z,7.50
2018-09-25T10:33:42.496Z,6.19
2018-09-25T10:34:42.437Z,9.19
2018-09-25T10:35:42.426Z,7.40
2018-09-25T10:36:42.418Z,6.59
2018-09-25T10:37:42.406Z,5.09
2018-09-25T10:38:42.394Z,7.30
2018-09-25T10:39:42.383Z,7.19
2018-09-25T10:40:42.371Z,6.90
2018-09-25T10:41:42.364Z,7.19
2018-09-25T10:42:42.353Z,6.59
2018-09-25T10:43:42.341Z,4.59
2018-09-25T10:44:42.328Z,8.10
2018-09-25T10:45:42.315Z,5.80
2018-09-25T10:46:42.308Z,6.19
2018-09-25T10:47:42.298Z,7.40
2018-09-25T10:48:42.283Z,5.80
2018-09-25T10:49:42.297Z,6.19
2018-09-25T10:50:42.263Z,6.80
2018-09-25T10:51:42.250Z,5.69
2018-09-25T10:52:42.240Z,5.40
2018-09-25T10:53:42.228Z,5.59
2018-09-25T10:54:42.217Z,3.79
2018-09-25T10:55:42.215Z,8.19
2018-09-25T10:56:42.195Z,5.09
2018-09-25T10:57:42.184Z,5.00
2018-09-25T10:58:42.175Z,5.69
2018-09-25T10:59:42.163Z,5.00
2018-09-25T11:00:42.151Z,5.19
2018-09-25T11:01:42.139Z,3.90
2018-09-25T11:02:42.136Z,6.59
2018-09-25T11:03:42.118Z,5.00
2018-09-25T11:04:42.109Z,6.30
2018-09-25T11:05:42.099Z,5.80
2018-09-25T11:06:42.088Z,3.40
2018-09-25T11:07:42.075Z,4.80
2018-09-25T11:08:42.068Z,2.79
2018-09-25T11:09:42.052Z,5.69
2018-09-25T11:10:42.043Z,6.59
2018-09-25T11:11:42.031Z,5.80
2018-09-25T11:12:42.021Z,5.19
2018-09-25T11:13:42.010Z,4.09
2018-09-25T11:14:42.000Z,4.19
2018-09-25T11:15:41.987Z,3.29
2018-09-25T11:16:41.979Z,4.40
2018-09-25T11:17:41.992Z,2.79
2018-09-25T11:18:41.958Z,4.30
2018-09-25T11:19:41.951Z,3.59
2018-09-25T11:20:41.933Z,4.80
2018-09-25T11:21:41.923Z,3.70
2018-09-25T11:22:41.913Z,3.09
2018-09-25T11:23:41.901Z,3.20
2018-09-25T11:24:41.891Z,4.00
2018-09-25T11:25:41.877Z,4.69
2018-09-25T11:26:41.870Z,3.59
2018-09-25T11:27:41.857Z,3.50
2018-09-25T11:28:41.845Z,6.00
2018-09-25T11:29:41.835Z,4.80
2018-09-25T11:30:41.823Z,3.79
2018-09-25T11:31:41.816Z,4.19
2018-09-25T11:32:41.801Z,2.20
2018-09-25T11:33:41.787Z,2.79
2018-09-25T11:34:41.782Z,2.50
2018-09-25T11:35:41.769Z,2.59
2018-09-25T11:36:41.763Z,2.50
2018-09-25T11:37:41.745Z,2.59
2018-09-25T11:38:41.734Z,2.29
2018-09-25T11:39:41.723Z,3.29
2018-09-25T11:40:41.713Z,2.20
2018-09-25T11:41:41.700Z,2.09
2018-09-25T11:42:41.689Z,3.79
2018-09-25T11:43:41.678Z,2.70
2018-09-25T11:44:41.668Z,2.09
2018-09-25T11:45:41.656Z,2.29
2018-09-25T11:46:41.765Z,3.29
2018-09-25T11:47:41.634Z,1.79
2018-09-25T11:48:41.626Z,3.29
2018-09-25T11:49:41.642Z,2.29
2018-09-25T11:50:41.602Z,3.59
2018-09-25T11:51:41.592Z,2.29
2018-09-25T11:52:41.599Z,2.70
2018-09-25T11:53:41.573Z,2.09
2018-09-25T11:54:41.564Z,2.50
2018-09-25T11:55:41.551Z,2.09
2018-09-25T11:56:41.534Z,2.29
2018-09-25T11:57:41.526Z,2.59
2018-09-25T11:58:41.516Z,2.20
2018-09-25T11:59:41.507Z,4.00
2018-09-25T12:00:41.492Z,2.20
2018-09-25T12:01:41.481Z,3.20
2018-09-25T12:02:41.478Z,2.79
2018-09-25T12:03:41.461Z,2.70
2018-09-25T12:04:41.451Z,2.40
2018-09-25T12:05:41.441Z,1.10
2018-09-25T12:06:41.428Z,2.59
2018-09-25T12:07:41.417Z,3.59
2018-09-25T12:08:41.406Z,1.90
2018-09-25T12:09:41.392Z,1.79
2018-09-25T12:10:41.403Z,2.09
2018-09-25T12:11:41.371Z,2.09
2018-09-25T12:12:41.365Z,3.09
2018-09-25T12:13:41.357Z,4.50
2018-09-25T12:14:41.342Z,6.00
2018-09-25T12:15:41.328Z,4.00
2018-09-25T12:16:41.318Z,4.30
2018-09-25T12:17:41.306Z,4.50
2018-09-25T12:18:41.293Z,1.79
2018-09-25T12:19:41.284Z,3.00
2018-09-25T12:20:41.273Z,3.90
2018-09-25T12:21:41.260Z,2.20
2018-09-25T12:22:41.252Z,2.50
2018-09-25T12:23:41.239Z,3.09
2018-09-25T12:24:41.226Z,3.40
2018-09-25T12:25:41.216Z,2.40
2018-09-25T12:26:41.206Z,2.09
2018-09-25T12:27:41.206Z,3.40
2018-09-25T12:28:41.187Z,2.00
2018-09-25T12:29:41.174Z,3.20
2018-09-25T12:30:41.169Z,3.09
2018-09-25T12:31:41.151Z,2.79
2018-09-25T12:32:41.216Z,2.59
2018-09-25T12:33:41.170Z,2.40
2018-09-25T12:34:41.121Z,3.00
2018-09-25T12:35:41.108Z,3.29
2018-09-25T12:36:41.097Z,2.40
2018-09-25T12:37:41.086Z,2.79
2018-09-25T12:38:41.105Z,3.79
2018-09-25T12:39:41.065Z,3.40
2018-09-25T12:40:41.053Z,2.70
2018-09-25T12:41:41.047Z,3.29
2018-09-25T12:42:41.030Z,3.90
2018-09-25T12:43:41.020Z,3.50
2018-09-25T12:44:41.011Z,4.69
2018-09-25T12:45:40.997Z,3.29
2018-09-25T12:46:40.989Z,3.00
2018-09-25T12:47:40.977Z,4.30
2018-09-25T12:48:40.966Z,6.80
2018-09-25T12:49:40.954Z,2.59
2018-09-25T12:50:40.941Z,2.79
2018-09-25T12:51:40.932Z,3.40
2018-09-25T12:52:40.922Z,4.09
2018-09-25T12:53:40.917Z,4.09
2018-09-25T12:54:40.901Z,3.20
2018-09-25T12:55:40.888Z,3.70
2018-09-25T12:56:40.884Z,3.09
2018-09-25T12:57:40.868Z,2.90
2018-09-25T12:58:40.861Z,3.40
2018-09-25T12:59:40.843Z,3.70